createdAt,value
2023-03-05T00:00:49.846Z,1019.70
2023-03-05T00:02:49.853Z,1019.70
2023-03-05T00:04:49.756Z,1019.67
2023-03-05T00:06:49.759Z,1019.66
2023-03-05T00:08:49.857Z,1019.66
2023-03-05T00:10:49.764Z,1019.62
2023-03-05T00:12:49.749Z,1019.62
2023-03-05T00:14:49.771Z,1019.61
2023-03-05T00:16:49.876Z,1019.61
2023-03-05T00:18:49.928Z,1019.60
2023-03-05T00:20:49.756Z,1019.59
2023-03-05T00:22:49.751Z,1019.59
2023-03-05T00:24:49.765Z,1019.59
2023-03-05T00:26:49.793Z,1019.57
2023-03-05T00:28:49.782Z,1019.53
2023-03-05T00:30:49.799Z,1019.53
2023-03-05T00:32:49.811Z,1019.48
2023-03-05T00:34:49.780Z,1019.47
2023-03-05T00:36:49.746Z,1019.47
2023-03-05T00:38:49.763Z,1019.43
2023-03-05T00:40:49.764Z,1019.43
2023-03-05T00:42:49.761Z,1019.47
2023-03-05T00:44:49.776Z,1019.45
2023-03-05T00:47:19.853Z,1019.45
2023-03-05T00:49:19.746Z,1019.41
2023-03-05T00:51:19.780Z,1019.40
2023-03-05T00:53:19.775Z,1019.42
2023-03-05T00:55:19.778Z,1019.42
2023-03-05T00:57:19.760Z,1019.41
2023-03-05T00:59:19.773Z,1019.37
2023-03-05T01:01:19.792Z,1019.38
2023-03-05T01:03:19.784Z,1019.38
2023-03-05T01:05:19.808Z,1019.37
2023-03-05T01:07:19.782Z,1019.33
2023-03-05T01:09:19.985Z,1019.32
2023-03-05T01:11:19.792Z,1019.30
2023-03-05T01:13:19.747Z,1019.30
2023-03-05T01:15:19.754Z,1019.30
2023-03-05T01:17:19.787Z,1019.30
2023-03-05T01:19:19.819Z,1019.25
2023-03-05T01:21:19.766Z,1019.19
2023-03-05T01:23:19.763Z,1019.19
2023-03-05T01:25:19.769Z,1019.19
2023-03-05T01:27:19.767Z,1019.13
2023-03-05T01:29:19.758Z,1019.10
2023-03-05T01:31:19.780Z,1019.10
2023-03-05T01:33:19.779Z,1019.10
2023-03-05T01:35:19.772Z,1019.04
2023-03-05T01:37:19.750Z,1019.00
2023-03-05T01:39:19.855Z,1018.99
2023-03-05T01:41:19.745Z,1018.99
2023-03-05T01:43:19.802Z,1018.98
2023-03-05T01:45:19.776Z,1018.97
2023-03-05T01:47:19.771Z,1018.97
2023-03-05T01:49:19.746Z,1018.97
2023-03-05T01:51:19.772Z,1018.97
2023-03-05T01:53:19.793Z,1018.90
2023-03-05T01:55:19.761Z,1018.90
2023-03-05T01:57:19.782Z,1018.90
2023-03-05T01:59:19.784Z,1018.90
2023-03-05T02:01:19.825Z,1018.81
2023-03-05T02:03:19.865Z,1018.78
2023-03-05T02:05:19.753Z,1018.76
2023-03-05T02:07:19.774Z,1018.74
2023-03-05T02:09:19.879Z,1018.74
2023-03-05T02:11:19.772Z,1018.68
2023-03-05T02:13:19.787Z,1018.70
2023-03-05T02:15:19.780Z,1018.70
2023-03-05T02:17:19.767Z,1018.65
2023-03-05T02:19:19.780Z,1018.65
2023-03-05T02:21:19.864Z,1018.60
2023-03-05T02:23:19.809Z,1018.54
2023-03-05T02:25:19.896Z,1018.56
2023-03-05T02:27:19.792Z,1018.56
2023-03-05T02:29:19.787Z,1018.52
2023-03-05T02:31:19.891Z,1018.52
2023-03-05T02:33:19.807Z,1018.53
2023-03-05T02:35:49.854Z,1018.50
2023-03-05T02:37:49.882Z,1018.50
2023-03-05T02:39:49.813Z,1018.50
2023-03-05T02:41:49.790Z,1018.45
2023-03-05T02:43:49.782Z,1018.37
2023-03-05T02:45:49.929Z,1018.37
2023-03-05T02:47:49.824Z,1018.37
2023-03-05T02:49:49.921Z,1018.33
2023-03-05T02:51:49.806Z,1018.36
2023-03-05T02:53:49.807Z,1018.32
2023-03-05T02:55:49.788Z,1018.26
2023-03-05T02:57:49.799Z,1018.26
2023-03-05T02:59:49.857Z,1018.26
2023-03-05T03:01:49.821Z,1018.26
2023-03-05T03:03:49.832Z,1018.20
2023-03-05T03:05:49.800Z,1018.20
2023-03-05T03:07:49.779Z,1018.20
2023-03-05T03:09:49.804Z,1018.18
2023-03-05T03:11:49.820Z,1018.15
2023-03-05T03:13:49.868Z,1018.15
2023-03-05T03:15:49.819Z,1018.15
2023-03-05T03:17:49.880Z,1018.14
2023-03-05T03:19:49.799Z,1018.14
2023-03-05T03:21:49.811Z,1018.09
2023-03-05T03:23:49.914Z,1018.07
2023-03-05T03:25:49.800Z,1018.07
2023-03-05T03:27:49.828Z,1018.03
2023-03-05T03:29:49.821Z,1018.01
2023-03-05T03:31:49.898Z,1017.96
2023-03-05T03:33:49.803Z,1017.96
2023-03-05T03:35:50.005Z,1017.95
2023-03-05T03:37:49.838Z,1017.93
2023-03-05T03:39:49.826Z,1017.89
2023-03-05T03:41:49.820Z,1017.86
2023-03-05T03:43:49.824Z,1017.86
2023-03-05T03:45:49.828Z,1017.86
2023-03-05T03:47:49.811Z,1017.86
2023-03-05T03:49:49.815Z,1017.82
2023-03-05T03:51:49.839Z,1017.82
2023-03-05T03:53:49.820Z,1017.82
2023-03-05T03:55:49.829Z,1017.80
2023-03-05T03:57:49.913Z,1017.78
2023-03-05T03:59:49.811Z,1017.78
2023-03-05T04:01:49.831Z,1017.78
2023-03-05T04:03:49.924Z,1017.75
2023-03-05T04:05:49.929Z,1017.72
2023-03-05T04:07:49.843Z,1017.72
2023-03-05T04:09:49.827Z,1017.71
2023-03-05T04:11:49.837Z,1017.71
2023-03-05T04:13:49.884Z,1017.64
2023-03-05T04:15:49.854Z,1017.61
2023-03-05T04:17:49.857Z,1017.57
2023-03-05T04:19:49.836Z,1017.55
2023-03-05T04:21:49.842Z,1017.55
2023-03-05T04:23:49.844Z,1017.54
2023-03-05T04:26:19.870Z,1017.52
2023-03-05T04:28:19.854Z,1017.47
2023-03-05T04:30:19.864Z,1017.47
2023-03-05T04:32:19.882Z,1017.45
2023-03-05T04:34:19.845Z,1017.45
2023-03-05T04:36:19.829Z,1017.41
2023-03-05T04:38:19.910Z,1017.43
2023-03-05T04:40:19.842Z,1017.43
2023-03-05T04:42:19.827Z,1017.41
2023-03-05T04:44:19.906Z,1017.41
2023-03-05T04:46:19.867Z,1017.40
2023-03-05T04:48:19.926Z,1017.39
2023-03-05T04:50:19.946Z,1017.36
2023-03-05T04:52:20.001Z,1017.36
2023-03-05T04:54:20.007Z,1017.36
2023-03-05T04:56:19.940Z,1017.39
2023-03-05T04:58:19.882Z,1017.33
2023-03-05T05:00:20.053Z,1017.33
2023-03-05T05:02:19.941Z,1017.33
2023-03-05T05:06:19.915Z,1017.33
2023-03-05T05:08:02.433Z,1017.33
2023-03-05T05:10:32.509Z,1017.29
2023-03-05T05:12:32.401Z,1017.29
2023-03-05T05:14:32.414Z,1017.29
2023-03-05T05:16:32.396Z,1017.28
2023-03-05T05:18:32.416Z,1017.28
2023-03-05T05:20:32.409Z,1017.28
2023-03-05T05:22:32.411Z,1017.28
2023-03-05T05:24:32.400Z,1017.26
2023-03-05T05:26:32.374Z,1017.24
2023-03-05T05:28:32.408Z,1017.22
2023-03-05T05:30:32.406Z,1017.22
2023-03-05T05:32:32.470Z,1017.22
2023-03-05T05:34:32.461Z,1017.25
2023-03-05T05:36:32.399Z,1017.22
2023-03-05T05:38:32.480Z,1017.18
2023-03-05T05:40:32.444Z,1017.18
2023-03-05T05:42:32.541Z,1017.19
2023-03-05T05:44:32.406Z,1017.19
2023-03-05T05:46:32.437Z,1017.19
2023-03-05T05:48:32.446Z,1017.20
2023-03-05T05:50:32.465Z,1017.20
2023-03-05T05:52:32.466Z,1017.18
2023-03-05T05:54:32.427Z,1017.21
2023-03-05T05:56:32.435Z,1017.23
2023-03-05T05:58:32.420Z,1017.26
2023-03-05T06:00:32.549Z,1017.26
2023-03-05T06:02:32.470Z,1017.26
2023-03-05T06:04:32.476Z,1017.26
2023-03-05T06:06:32.428Z,1017.28
2023-03-05T06:08:32.406Z,1017.28
2023-03-05T06:10:32.435Z,1017.26
2023-03-05T06:12:32.436Z,1017.24
2023-03-05T06:14:32.438Z,1017.26
2023-03-05T06:16:32.452Z,1017.26
2023-03-05T06:18:32.476Z,1017.26
2023-03-05T06:20:32.433Z,1017.27
2023-03-05T06:22:32.454Z,1017.25
2023-03-05T06:24:32.466Z,1017.24
2023-03-05T06:26:32.448Z,1017.24
2023-03-05T06:28:32.465Z,1017.24
2023-03-05T06:30:32.524Z,1017.20
2023-03-05T06:32:32.445Z,1017.22
2023-03-05T06:34:32.427Z,1017.19
2023-03-05T06:36:32.430Z,1017.19
2023-03-05T06:38:32.444Z,1017.19
2023-03-05T06:40:32.527Z,1017.19
2023-03-05T06:42:32.481Z,1017.19
2023-03-05T06:44:32.477Z,1017.24
2023-03-05T06:46:32.553Z,1017.24
2023-03-05T06:48:32.520Z,1017.20
2023-03-05T06:50:32.503Z,1017.19
2023-03-05T06:52:32.640Z,1017.16
2023-03-05T06:54:32.536Z,1017.17
2023-03-05T06:57:02.566Z,1017.17
2023-03-05T06:59:02.464Z,1017.17
2023-03-05T07:01:02.472Z,1017.15
2023-03-05T07:03:02.530Z,1017.09
2023-03-05T07:05:02.494Z,1017.09
2023-03-05T07:07:02.436Z,1017.11
2023-03-05T07:09:02.585Z,1017.08
2023-03-05T07:11:02.543Z,1017.08
2023-03-05T07:13:02.543Z,1017.11
2023-03-05T07:15:02.490Z,1017.11
2023-03-05T07:17:02.474Z,1017.11
2023-03-05T07:19:02.575Z,1017.12
2023-03-05T07:21:02.536Z,1017.09
2023-03-05T07:23:02.548Z,1017.09
2023-03-05T07:25:02.544Z,1017.09
2023-03-05T07:27:02.558Z,1017.09
2023-03-05T07:29:02.514Z,1017.10
2023-03-05T07:31:02.580Z,1017.08
2023-03-05T07:33:02.505Z,1017.08
2023-03-05T07:35:02.583Z,1017.11
2023-03-05T07:37:02.573Z,1017.09
2023-03-05T07:39:02.735Z,1017.03
2023-03-05T07:41:02.685Z,1017.05
2023-03-05T07:43:02.595Z,1017.05
2023-03-05T07:45:02.651Z,1016.99
2023-03-05T07:47:02.524Z,1016.99
2023-03-05T07:49:02.512Z,1017.01
2023-03-05T07:51:02.583Z,1017.01
2023-03-05T07:53:02.552Z,1017.01
2023-03-05T07:55:02.493Z,1017.00
2023-03-05T07:57:02.575Z,1017.00
2023-03-05T07:59:02.610Z,1016.98
2023-03-05T08:01:02.543Z,1016.98
2023-03-05T08:03:02.564Z,1016.98
2023-03-05T08:05:02.547Z,1016.98
2023-03-05T08:07:02.497Z,1016.94
2023-03-05T08:09:03.654Z,1016.97
2023-03-05T08:11:03.379Z,1016.97
2023-03-05T08:13:02.618Z,1016.98
2023-03-05T08:15:02.492Z,1016.96
2023-03-05T08:17:02.528Z,1016.92
2023-03-05T08:19:02.556Z,1016.89
2023-03-05T08:21:02.584Z,1016.89
2023-03-05T08:23:03.596Z,1016.90
2023-03-05T08:25:02.949Z,1016.89
2023-03-05T08:27:02.533Z,1016.89
2023-03-05T08:29:02.575Z,1016.89
2023-03-05T08:31:02.599Z,1016.89
2023-03-05T08:33:02.525Z,1016.89
2023-03-05T08:35:02.514Z,1016.83
2023-03-05T08:37:02.602Z,1016.86
2023-03-05T08:39:02.588Z,1016.86
2023-03-05T08:41:02.665Z,1016.86
2023-03-05T08:43:32.616Z,1016.83
2023-03-05T08:45:32.505Z,1016.83
2023-03-05T08:47:32.589Z,1016.84
2023-03-05T08:49:32.494Z,1016.82
2023-03-05T08:51:32.506Z,1016.81
2023-03-05T08:53:32.611Z,1016.81
2023-03-05T08:55:32.531Z,1016.80
2023-03-05T08:57:32.560Z,1016.80
2023-03-05T08:59:32.537Z,1016.80
2023-03-05T09:01:32.605Z,1016.83
2023-03-05T09:03:32.615Z,1016.83
2023-03-05T09:05:32.579Z,1016.72
2023-03-05T09:07:32.758Z,1016.75
2023-03-05T09:09:32.611Z,1016.70
2023-03-05T09:11:33.719Z,1016.70
2023-03-05T09:13:32.568Z,1016.70
2023-03-05T09:15:32.517Z,1016.68
2023-03-05T09:17:32.599Z,1016.67
2023-03-05T09:19:32.505Z,1016.65
2023-03-05T09:21:32.608Z,1016.65
2023-03-05T09:23:32.630Z,1016.64
2023-03-05T09:25:32.618Z,1016.64
2023-03-05T09:27:32.564Z,1016.60
2023-03-05T09:29:32.514Z,1016.60
2023-03-05T09:31:32.622Z,1016.60
2023-03-05T09:33:32.616Z,1016.57
2023-03-05T09:35:32.660Z,1016.54
2023-03-05T09:37:32.544Z,1016.52
2023-03-05T09:39:32.716Z,1016.52
2023-03-05T09:41:32.639Z,1016.52
2023-03-05T09:43:32.590Z,1016.54
2023-03-05T09:45:32.592Z,1016.51
2023-03-05T09:47:32.581Z,1016.50
2023-03-05T09:49:32.601Z,1016.50
2023-03-05T09:51:32.622Z,1016.50
2023-03-05T09:53:32.627Z,1016.43
2023-03-05T09:55:32.708Z,1016.43
2023-03-05T09:57:32.637Z,1016.40
2023-03-05T09:59:32.596Z,1016.40
2023-03-05T10:01:32.582Z,1016.42
2023-03-05T10:03:32.630Z,1016.40
2023-03-05T10:05:32.576Z,1016.40
2023-03-05T10:07:32.586Z,1016.40
2023-03-05T10:09:32.704Z,1016.36
2023-03-05T10:11:32.638Z,1016.36
2023-03-05T10:13:32.581Z,1016.33
2023-03-05T10:15:32.656Z,1016.33
2023-03-05T10:17:32.594Z,1016.33
2023-03-05T10:19:32.614Z,1016.30
2023-03-05T10:21:32.758Z,1016.31
2023-03-05T10:23:32.636Z,1016.24
2023-03-05T10:25:32.530Z,1016.24
2023-03-05T10:27:32.684Z,1016.24
2023-03-05T10:29:32.593Z,1016.21
2023-03-05T10:32:02.706Z,1016.21
2023-03-05T10:34:02.605Z,1016.16
2023-03-05T10:36:02.637Z,1016.16
2023-03-05T10:38:02.644Z,1016.08
2023-03-05T10:40:02.610Z,1016.09
2023-03-05T10:42:02.712Z,1016.09
2023-03-05T10:44:02.790Z,1016.00
2023-03-05T10:46:02.725Z,1016.00
2023-03-05T10:48:02.609Z,1016.00
2023-03-05T10:50:02.616Z,1016.02
2023-03-05T10:52:02.649Z,1016.03
2023-03-05T10:54:02.644Z,1015.99
2023-03-05T10:56:02.685Z,1015.99
2023-03-05T10:58:02.802Z,1015.94
2023-03-05T11:00:02.826Z,1015.97
2023-03-05T11:02:02.658Z,1015.87
2023-03-05T11:04:02.674Z,1015.85
2023-03-05T11:06:02.731Z,1015.85
2023-03-05T11:08:02.638Z,1015.74
2023-03-05T11:10:02.694Z,1015.77
2023-03-05T11:12:02.609Z,1015.77
2023-03-05T11:14:02.604Z,1015.77
2023-03-05T11:16:02.812Z,1015.75
2023-03-05T11:18:02.633Z,1015.74
2023-03-05T11:20:02.676Z,1015.71
2023-03-05T11:22:02.653Z,1015.70
2023-03-05T11:24:02.668Z,1015.70
2023-03-05T11:26:02.628Z,1015.70
2023-03-05T11:28:02.593Z,1015.70
2023-03-05T11:30:02.748Z,1015.61
2023-03-05T11:32:02.660Z,1015.57
2023-03-05T11:34:02.732Z,1015.57
2023-03-05T11:36:02.668Z,1015.54
2023-03-05T11:38:02.711Z,1015.53
2023-03-05T11:40:02.695Z,1015.52
2023-03-05T11:42:02.778Z,1015.52
2023-03-05T11:44:02.593Z,1015.43
2023-03-05T11:46:02.659Z,1015.44
2023-03-05T11:48:02.673Z,1015.38
2023-03-05T11:50:02.692Z,1015.43
2023-03-05T11:52:02.742Z,1015.43
2023-03-05T11:54:02.791Z,1015.35
2023-03-05T11:56:02.754Z,1015.32
2023-03-05T11:58:02.817Z,1015.29
2023-03-05T12:00:03.541Z,1015.29
2023-03-05T12:02:02.738Z,1015.29
2023-03-05T12:04:02.795Z,1015.26
2023-03-05T12:06:03.954Z,1015.22
2023-03-05T12:10:02.796Z,1015.22
2023-03-05T12:12:02.802Z,1015.15
2023-03-05T12:14:02.737Z,1015.10
2023-03-05T12:16:17.263Z,1015.06
2023-03-05T12:18:17.220Z,1015.06
2023-03-05T12:20:17.354Z,1015.01
2023-03-05T12:22:17.450Z,1014.98
2023-03-05T12:24:17.472Z,1014.98
2023-03-05T12:26:17.265Z,1014.98
2023-03-05T12:28:17.220Z,1014.95
2023-03-05T12:30:17.206Z,1014.91
2023-03-05T12:32:17.268Z,1014.83
2023-03-05T12:34:17.348Z,1014.83
2023-03-05T12:36:17.275Z,1014.80
2023-03-05T12:38:26.061Z,1014.73
2023-03-05T12:40:17.607Z,1014.70
2023-03-05T12:42:17.298Z,1014.70
2023-03-05T12:44:17.243Z,1014.68
2023-03-05T12:46:17.439Z,1014.68
2023-03-05T12:48:17.284Z,1014.68
2023-03-05T12:50:17.276Z,1014.68
2023-03-05T12:52:17.274Z,1014.68
2023-03-05T12:54:19.056Z,1014.58
2023-03-05T12:56:17.344Z,1014.54
2023-03-05T12:58:17.300Z,1014.51
2023-03-05T13:00:17.460Z,1014.48
2023-03-05T13:02:17.212Z,1014.48
2023-03-05T13:04:17.277Z,1014.48
2023-03-05T13:06:17.249Z,1014.42
2023-03-05T13:08:17.296Z,1014.42
2023-03-05T13:10:17.280Z,1014.42
2023-03-05T13:12:17.333Z,1014.34
2023-03-05T13:14:47.199Z,1014.30
2023-03-05T13:16:47.242Z,1014.29
2023-03-05T13:18:47.232Z,1014.29
2023-03-05T13:20:47.251Z,1014.29
2023-03-05T13:22:47.275Z,1014.27
2023-03-05T13:24:47.316Z,1014.29
2023-03-05T13:26:47.331Z,1014.24
2023-03-05T13:28:47.294Z,1014.24
2023-03-05T13:30:47.240Z,1014.24
2023-03-05T13:32:47.238Z,1014.17
2023-03-05T13:34:48.065Z,1014.14
2023-03-05T13:36:47.297Z,1014.11
2023-03-05T13:38:47.301Z,1014.11
2023-03-05T13:40:47.346Z,1014.12
2023-03-05T13:42:47.295Z,1014.04
2023-03-05T13:44:47.241Z,1014.05
2023-03-05T13:46:47.273Z,1014.04
2023-03-05T13:48:47.272Z,1014.04
2023-03-05T13:50:47.311Z,1014.04
2023-03-05T13:52:47.291Z,1013.98
2023-03-05T13:54:47.339Z,1013.96
2023-03-05T13:56:47.229Z,1013.96
2023-03-05T13:58:47.345Z,1013.96
2023-03-05T14:00:47.276Z,1013.91
2023-03-05T14:02:47.248Z,1013.89
2023-03-05T14:04:47.265Z,1013.82
2023-03-05T14:06:47.333Z,1013.82
2023-03-05T14:08:47.295Z,1013.82
2023-03-05T14:10:47.305Z,1013.82
2023-03-05T14:12:47.363Z,1013.75
2023-03-05T14:14:47.225Z,1013.76
2023-03-05T14:16:47.294Z,1013.76
2023-03-05T14:18:47.285Z,1013.74
2023-03-05T14:20:47.300Z,1013.74
2023-03-05T14:22:47.335Z,1013.68
2023-03-05T14:24:47.312Z,1013.64
2023-03-05T14:26:47.378Z,1013.64
2023-03-05T14:28:47.336Z,1013.64
2023-03-05T14:30:47.298Z,1013.61
2023-03-05T14:32:47.284Z,1013.59
2023-03-05T14:34:47.310Z,1013.59
2023-03-05T14:36:47.305Z,1013.59
2023-03-05T14:38:47.326Z,1013.50
2023-03-05T14:40:47.319Z,1013.50
2023-03-05T14:42:47.252Z,1013.43
2023-03-05T14:44:47.351Z,1013.43
2023-03-05T14:46:47.281Z,1013.43
2023-03-05T14:48:47.456Z,1013.34
2023-03-05T14:50:47.300Z,1013.34
2023-03-05T14:52:47.309Z,1013.29
2023-03-05T14:54:47.318Z,1013.29
2023-03-05T14:56:47.336Z,1013.28
2023-03-05T14:58:47.285Z,1013.26
2023-03-05T15:00:47.874Z,1013.18
2023-03-05T15:02:48.387Z,1013.17
2023-03-05T15:05:17.341Z,1013.15
2023-03-05T15:07:17.333Z,1013.15
2023-03-05T15:09:17.352Z,1013.15
2023-03-05T15:11:17.356Z,1013.11
2023-03-05T15:13:17.327Z,1013.10
2023-03-05T15:15:17.283Z,1013.08
2023-03-05T15:17:17.300Z,1013.08
2023-03-05T15:19:17.423Z,1013.09
2023-03-05T15:21:17.369Z,1013.05
2023-03-05T15:23:17.461Z,1012.97
2023-03-05T15:25:17.361Z,1012.97
2023-03-05T15:27:17.347Z,1012.97
2023-03-05T15:29:17.340Z,1012.89
2023-03-05T15:31:17.361Z,1012.89
2023-03-05T15:33:17.374Z,1012.90
2023-03-05T15:35:17.327Z,1012.89
2023-03-05T15:37:17.328Z,1012.89
2023-03-05T15:39:17.349Z,1012.90
2023-03-05T15:41:17.358Z,1012.90
2023-03-05T15:43:17.400Z,1012.79
2023-03-05T15:45:17.507Z,1012.79
2023-03-05T15:47:17.308Z,1012.75
2023-03-05T15:49:17.385Z,1012.73
2023-03-05T15:51:17.545Z,1012.73
2023-03-05T15:53:17.382Z,1012.70
2023-03-05T15:55:17.389Z,1012.70
2023-03-05T15:57:17.388Z,1012.64
2023-03-05T15:59:17.295Z,1012.61
2023-03-05T16:01:17.370Z,1012.61
2023-03-05T16:03:17.506Z,1012.62
2023-03-05T16:05:17.370Z,1012.60
2023-03-05T16:07:17.340Z,1012.57
2023-03-05T16:09:17.447Z,1012.57
2023-03-05T16:11:17.264Z,1012.53
2023-03-05T16:13:18.681Z,1012.53
2023-03-05T16:15:17.314Z,1012.48
2023-03-05T16:17:17.332Z,1012.48
2023-03-05T16:19:17.388Z,1012.48
2023-03-05T16:21:17.433Z,1012.42
2023-03-05T16:23:17.370Z,1012.42
2023-03-05T16:25:17.382Z,1012.35
2023-03-05T16:27:17.396Z,1012.35
2023-03-05T16:29:17.479Z,1012.35
2023-03-05T16:31:17.431Z,1012.30
2023-03-05T16:33:17.338Z,1012.27
2023-03-05T16:35:17.391Z,1012.27
2023-03-05T16:37:17.403Z,1012.27
2023-03-05T16:39:17.447Z,1012.27
2023-03-05T16:41:17.467Z,1012.28
2023-03-05T16:43:17.450Z,1012.28
2023-03-05T16:45:17.312Z,1012.26
2023-03-05T16:47:19.405Z,1012.26
2023-03-05T16:49:17.365Z,1012.25
2023-03-05T16:51:19.932Z,1012.28
2023-03-05T16:53:17.393Z,1012.28
2023-03-05T16:55:47.380Z,1012.28
2023-03-05T16:57:47.344Z,1012.20
2023-03-05T16:59:47.336Z,1012.20
2023-03-05T17:01:47.366Z,1012.20
2023-03-05T17:03:47.416Z,1012.20
2023-03-05T17:05:47.389Z,1012.10
2023-03-05T17:07:47.459Z,1012.10
2023-03-05T17:09:47.477Z,1012.10
2023-03-05T17:11:47.315Z,1012.10
2023-03-05T17:13:49.137Z,1012.10
2023-03-05T17:15:47.369Z,1012.10
2023-03-05T17:17:47.373Z,1012.06
2023-03-05T17:19:47.354Z,1012.06
2023-03-05T17:21:47.446Z,1012.09
2023-03-05T17:23:47.406Z,1012.08
2023-03-05T17:25:47.424Z,1012.08
2023-03-05T17:27:47.500Z,1012.06
2023-03-05T17:29:47.323Z,1012.06
2023-03-05T17:31:47.647Z,1012.08
2023-03-05T17:33:47.488Z,1012.08
2023-03-05T17:35:47.456Z,1012.08
2023-03-05T17:37:47.419Z,1012.16
2023-03-05T17:39:47.435Z,1012.16
2023-03-05T17:41:47.412Z,1012.12
2023-03-05T17:43:47.386Z,1012.08
2023-03-05T17:45:47.405Z,1012.08
2023-03-05T17:47:47.425Z,1012.08
2023-03-05T17:49:47.489Z,1012.08
2023-03-05T17:51:47.464Z,1012.08
2023-03-05T17:53:47.416Z,1012.10
2023-03-05T17:55:47.641Z,1012.10
2023-03-05T17:57:47.473Z,1012.10
2023-03-05T17:59:47.365Z,1012.11
2023-03-05T18:01:48.391Z,1012.11
2023-03-05T18:03:47.415Z,1012.11
2023-03-05T18:05:47.415Z,1012.10
2023-03-05T18:07:47.710Z,1012.10
2023-03-05T18:09:47.523Z,1012.10
2023-03-05T18:11:47.441Z,1012.13
2023-03-05T18:13:47.376Z,1012.13
2023-03-05T18:15:47.469Z,1012.13
2023-03-05T18:17:47.397Z,1012.05
2023-03-05T18:19:47.493Z,1012.04
2023-03-05T18:21:47.566Z,1011.98
2023-03-05T18:23:47.466Z,1011.98
2023-03-05T18:25:49.390Z,1011.98
2023-03-05T18:27:47.507Z,1011.98
2023-03-05T18:29:47.476Z,1011.95
2023-03-05T18:31:47.534Z,1011.95
2023-03-05T18:33:47.509Z,1011.95
2023-03-05T18:35:47.442Z,1011.95
2023-03-05T18:37:47.432Z,1011.94
2023-03-05T18:39:47.347Z,1011.91
2023-03-05T18:41:47.536Z,1011.85
2023-03-05T18:44:19.128Z,1011.85
2023-03-05T18:46:17.495Z,1011.86
2023-03-05T18:48:17.917Z,1011.86
2023-03-05T18:50:18.001Z,1011.82
2023-03-05T18:52:17.423Z,1011.78
2023-03-05T18:54:17.557Z,1011.78
2023-03-05T18:56:17.366Z,1011.78
2023-03-05T18:58:17.534Z,1011.78
2023-03-05T19:00:17.489Z,1011.75
2023-03-05T19:02:17.409Z,1011.75
2023-03-05T19:04:17.547Z,1011.75
2023-03-05T19:06:17.484Z,1011.75
2023-03-05T19:08:17.515Z,1011.72
2023-03-05T19:10:18.415Z,1011.72
2023-03-05T19:12:17.548Z,1011.72
2023-03-05T19:14:17.464Z,1011.75
2023-03-05T19:16:17.418Z,1011.72
2023-03-05T19:18:17.421Z,1011.72
2023-03-05T19:20:17.542Z,1011.76
2023-03-05T19:22:27.433Z,1011.77
2023-03-05T19:24:27.391Z,1011.77
2023-03-05T19:26:27.433Z,1011.77
2023-03-05T19:28:27.608Z,1011.72
2023-03-05T19:30:27.494Z,1011.64
2023-03-05T19:32:27.519Z,1011.64
2023-03-05T19:34:27.420Z,1011.64
2023-03-05T19:36:27.459Z,1011.64
2023-03-05T19:38:27.400Z,1011.56
2023-03-05T19:40:27.428Z,1011.56
2023-03-05T19:42:27.513Z,1011.53
2023-03-05T19:44:27.471Z,1011.53
2023-03-05T19:46:27.532Z,1011.47
2023-03-05T19:48:27.493Z,1011.47
2023-03-05T19:50:27.365Z,1011.45
2023-03-05T19:52:27.412Z,1011.43
2023-03-05T19:54:27.432Z,1011.43
2023-03-05T19:56:27.460Z,1011.41
2023-03-05T19:58:27.514Z,1011.38
2023-03-05T20:00:27.494Z,1011.36
2023-03-05T20:02:27.375Z,1011.36
2023-03-05T20:04:27.498Z,1011.36
2023-03-05T20:06:27.498Z,1011.36
2023-03-05T20:08:27.467Z,1011.29
2023-03-05T20:10:27.444Z,1011.31
2023-03-05T20:12:27.522Z,1011.31
2023-03-05T20:14:27.480Z,1011.28
2023-03-05T20:16:27.592Z,1011.28
2023-03-05T20:18:27.400Z,1011.28
2023-03-05T20:20:27.371Z,1011.28
2023-03-05T20:22:27.438Z,1011.28
2023-03-05T20:24:27.464Z,1011.19
2023-03-05T20:26:27.473Z,1011.20
2023-03-05T20:28:27.523Z,1011.19
2023-03-05T20:30:27.493Z,1011.20
2023-03-05T20:32:27.547Z,1011.20
2023-03-05T20:34:27.439Z,1011.20
2023-03-05T20:36:27.454Z,1011.16
2023-03-05T20:38:27.534Z,1011.16
2023-03-05T20:40:27.414Z,1011.16
2023-03-05T20:42:27.483Z,1011.16
2023-03-05T20:44:27.553Z,1011.15
2023-03-05T20:46:27.548Z,1011.13
2023-03-05T20:48:27.530Z,1011.13
2023-03-05T20:50:27.437Z,1011.13
2023-03-05T20:52:27.418Z,1011.03
2023-03-05T20:54:27.700Z,1011.04
2023-03-05T20:56:27.488Z,1011.04
2023-03-05T20:58:27.489Z,1011.04
2023-03-05T21:00:27.444Z,1011.04
2023-03-05T21:02:27.499Z,1010.95
2023-03-05T21:04:27.464Z,1010.95
2023-03-05T21:06:57.439Z,1010.85
2023-03-05T21:08:57.464Z,1010.85
2023-03-05T21:10:57.474Z,1010.85
2023-03-05T21:12:58.990Z,1010.85
2023-03-05T21:14:57.539Z,1010.84
2023-03-05T21:16:57.531Z,1010.84
2023-03-05T21:18:57.540Z,1010.84
2023-03-05T21:20:57.390Z,1010.78
2023-03-05T21:22:57.461Z,1010.79
2023-03-05T21:24:57.522Z,1010.78
2023-03-05T21:26:57.481Z,1010.78
2023-03-05T21:28:57.425Z,1010.78
2023-03-05T21:30:57.541Z,1010.72
2023-03-05T21:32:57.436Z,1010.72
2023-03-05T21:34:59.401Z,1010.70
2023-03-05T21:36:57.459Z,1010.70
2023-03-05T21:38:57.485Z,1010.70
2023-03-05T21:40:57.492Z,1010.70
2023-03-05T21:42:57.460Z,1010.60
2023-03-05T21:44:57.510Z,1010.61
2023-03-05T21:46:57.456Z,1010.61
2023-03-05T21:48:57.440Z,1010.61
2023-03-05T21:50:57.468Z,1010.61
2023-03-05T21:52:57.471Z,1010.49
2023-03-05T21:54:57.463Z,1010.48
2023-03-05T21:56:57.494Z,1010.48
2023-03-05T21:58:57.527Z,1010.43
2023-03-05T22:00:57.481Z,1010.43
2023-03-05T22:02:58.502Z,1010.39
2023-03-05T22:04:57.432Z,1010.39
2023-03-05T22:06:57.475Z,1010.39
2023-03-05T22:08:57.485Z,1010.36
2023-03-05T22:10:57.514Z,1010.36
2023-03-05T22:12:57.540Z,1010.22
2023-03-05T22:14:57.545Z,1010.22
2023-03-05T22:16:57.493Z,1010.22
2023-03-05T22:18:57.457Z,1010.22
2023-03-05T22:20:57.424Z,1010.22
2023-03-05T22:22:57.434Z,1010.22
2023-03-05T22:24:57.489Z,1010.22
2023-03-05T22:26:57.516Z,1010.15
2023-03-05T22:28:57.452Z,1010.16
2023-03-05T22:30:57.460Z,1010.10
2023-03-05T22:32:57.433Z,1010.08
2023-03-05T22:34:57.455Z,1010.08
2023-03-05T22:36:57.455Z,1010.08
2023-03-05T22:38:57.485Z,1009.97
2023-03-05T22:40:57.469Z,1009.99
2023-03-05T22:42:57.537Z,1009.96
2023-03-05T22:44:57.592Z,1009.96
2023-03-05T22:46:57.433Z,1009.96
2023-03-05T22:48:57.438Z,1009.96
2023-03-05T22:50:57.476Z,1009.83
2023-03-05T22:53:27.494Z,1009.82
2023-03-05T22:55:27.512Z,1009.76
2023-03-05T22:57:27.535Z,1009.76
2023-03-05T22:59:27.442Z,1009.76
2023-03-05T23:01:27.629Z,1009.76
2023-03-05T23:03:27.693Z,1009.67
2023-03-05T23:05:27.511Z,1009.64
2023-03-05T23:07:27.508Z,1009.64
2023-03-05T23:09:27.474Z,1009.56
2023-03-05T23:11:27.518Z,1009.56
2023-03-05T23:13:27.552Z,1009.62
2023-03-05T23:15:27.634Z,1009.62
2023-03-05T23:17:28.467Z,1009.55
2023-03-05T23:19:27.513Z,1009.53
2023-03-05T23:21:27.456Z,1009.50
2023-03-05T23:23:27.535Z,1009.48
2023-03-05T23:25:27.551Z,1009.48
2023-03-05T23:27:27.553Z,1009.44
2023-03-05T23:29:27.606Z,1009.43
2023-03-05T23:31:27.694Z,1009.40
2023-03-05T23:33:27.482Z,1009.40
2023-03-05T23:35:27.542Z,1009.40
2023-03-05T23:37:27.444Z,1009.35
2023-03-05T23:39:27.475Z,1009.35
2023-03-05T23:41:27.469Z,1009.30
2023-03-05T23:43:27.562Z,1009.27
2023-03-05T23:45:27.490Z,1009.27
2023-03-05T23:47:27.443Z,1009.19
2023-03-05T23:49:27.492Z,1009.20
2023-03-05T23:51:27.469Z,1009.20
2023-03-05T23:53:27.515Z,1009.20
2023-03-05T23:55:27.465Z,1009.12
2023-03-05T23:57:27.457Z,1009.11
2023-03-05T23:59:27.583Z,1009.12
